Oak Point, Texas
Current Conditions -  °F | °C
As of 7:53 AM on Friday 31 Oct 2014 (Local Time) from KDTO Reporting Station
Clear Clear  
Wind Chill: 44°   Ceiling: Unl
Heat Index: 48°   Visibility: 10mi
Dew Point: 39°   Wind: 9mph
Humidity: 71%   Direction: 350°N
Pressure: 30.29"   Gusts: NA
Location:  33.1913°N, 96.9829°W
Report Text: KDTO 311253Z 35008KT 10SM CLR 09/04 A3029 RMK AO2 SLP252 T00890039
Loading
Personal Weather Stations






























Interactive Weather Map
Tropical Storm Tracking
New forecast layout! Learn more

10-Day Weather Forecast

Advertisements
Track Severe Weather on mobile